Time;durP1;ratioP1;P1;durP2;ratioP2;P2;SDS_P1;SDS_P2;PMS_P1;PMS_P2;Temp;Humidity;BMP_temperature;BMP_pressure;BME280_temperature;BME280_humidity;BME280_pressure;Samples;Min_cycle;Max_cycle;Signal;HPM_P1;HPM_P2
2022/02/10 00:21:27;;;;;;;19.90;12.40;;;;;;;6.78;90.04;100599.23;1662483;86;25500;-74
2022/02/10 00:24:23;;;;;;;21.00;12.50;;;;;;;6.78;90.08;100600.59;1661863;85;26407;-74
2022/02/10 00:34:40;;;;;;;22.98;14.68;;;;;;;6.74;90.34;100598.16;1662443;86;25421;-75
2022/02/10 00:41:57;;;;;;;24.00;12.95;;;;;;;6.74;90.47;100599.52;1656186;86;27336;-75
2022/02/10 00:44:23;;;;;;;17.67;12.63;;;;;;;6.74;90.44;100608.92;1650659;86;25827;-75
2022/02/10 00:46:49;;;;;;;18.12;13.20;;;;;;;6.75;90.54;100608.40;1629450;88;25671;-75
2022/02/10 00:49:16;;;;;;;22.67;13.53;;;;;;;6.74;90.56;100587.41;1650726;86;25787;-75
2022/02/10 00:51:42;;;;;;;21.05;13.95;;;;;;;6.73;90.43;100591.99;1629461;88;25642;-75
2022/02/10 00:54:10;;;;;;;32.17;17.30;;;;;;;6.73;90.57;100595.23;1650697;86;27390;-75
2022/02/10 00:56:37;;;;;;;30.27;16.60;;;;;;;6.73;90.59;100597.92;1610839;88;25679;-75
2022/02/10 00:59:12;;;;;;;18.25;13.62;;;;;;;6.73;90.74;100592.55;1679678;85;25448;-75
2022/02/10 01:07:12;;;;;;;20.40;13.60;;;;;;;6.74;90.71;100594.13;1629601;88;27957;-76
2022/02/10 01:31:26;;;;;;;18.32;13.05;;;;;;;6.73;90.99;100591.99;1629639;88;25501;-76
2022/02/10 01:33:52;;;;;;;17.48;13.20;;;;;;;6.73;90.92;100600.06;1650884;86;27913;-75
2022/02/10 01:36:19;;;;;;;22.42;14.78;;;;;;;6.74;91.01;100602.20;1626392;87;25630;-75
2022/02/10 01:38:45;;;;;;;19.77;13.30;;;;;;;6.74;90.99;100599.52;1667588;84;25498;-76
2022/02/10 01:41:49;;;;;;;19.67;13.10;;;;;;;6.74;91.08;100596.82;1667373;86;26268;-76
2022/02/10 01:58:01;;;;;;;26.00;18.32;;;;;;;6.77;91.12;100603.55;1667480;85;25495;-76
2022/02/10 02:05:46;;;;;;;21.12;14.23;;;;;;;6.75;91.20;100588.23;1667462;86;25371;-76
2022/02/10 02:08:10;;;;;;;19.10;13.10;;;;;;;6.73;91.24;100595.23;1667017;85;25685;-76
2022/02/10 02:10:39;;;;;;;18.70;13.75;;;;;;;6.73;91.18;100597.92;1637759;86;25652;-74
2022/02/10 02:13:08;;;;;;;21.65;14.40;;;;;;;6.73;91.31;100608.12;1667437;86;28063;-75
2022/02/10 02:15:34;;;;;;;19.90;13.90;;;;;;;6.73;91.34;100604.64;1667361;86;25403;-74
2022/02/10 02:18:01;;;;;;;20.15;14.50;;;;;;;6.74;91.32;100615.64;1637883;86;25595;-75
2022/02/10 02:20:27;;;;;;;19.40;14.00;;;;;;;6.74;91.32;100614.30;1668225;84;26311;-74
2022/02/10 02:22:53;;;;;;;20.02;13.43;;;;;;;6.73;91.29;100592.55;1611480;86;25697;-74
2022/02/10 02:25:21;;;;;;;20.55;13.62;;;;;;;6.72;91.29;100605.70;1667623;84;27967;-75
2022/02/10 02:27:54;;;;;;;20.27;13.83;;;;;;;6.70;91.36;100602.50;1609204;87;25238;-75
2022/02/10 02:30:29;;;;;;;20.92;14.25;;;;;;;6.69;91.29;100607.59;1668327;84;25577;-74
2022/02/10 03:05:26;;;;;;;26.37;16.25;;;;;;;6.62;92.02;100589.07;1671722;85;27352;-75
2022/02/10 03:07:51;;;;;;;21.23;14.93;;;;;;;6.62;92.02;100595.80;1637428;87;25337;-75
2022/02/10 03:12:43;;;;;;;21.23;14.68;;;;;;;6.64;92.01;100599.55;1652155;85;25687;-74
2022/02/10 03:15:21;;;;;;;20.50;14.73;;;;;;;6.64;92.07;100594.17;1638781;87;25469;-75
2022/02/10 03:20:23;;;;;;;24.20;17.05;;;;;;;6.66;92.16;100594.18;1671656;85;25483;-75
2022/02/10 03:59:39;;;;;;;23.80;17.92;;;;;;;6.65;92.20;100598.48;1635986;87;25676;-75
2022/02/10 04:06:30;;;;;;;25.90;17.12;;;;;;;6.58;93.01;100589.92;1668760;85;26421;-75
2022/02/10 04:16:33;;;;;;;23.98;16.95;;;;;;;6.59;93.17;100596.88;1673424;85;25474;-75
2022/02/10 04:24:35;;;;;;;22.90;16.87;;;;;;;6.62;93.07;100597.69;1672172;85;27894;-75
2022/02/10 04:27:00;;;;;;;24.43;17.35;;;;;;;6.62;93.08;100602.52;1668546;85;25586;-75
2022/02/10 04:29:51;;;;;;;26.17;16.60;;;;;;;6.62;93.20;100613.27;1634490;86;25798;-75
2022/02/10 04:40:41;;;;;;;27.77;17.45;;;;;;;6.60;93.50;100607.91;1638791;87;25492;-75
2022/02/10 05:12:22;;;;;;;28.57;19.20;;;;;;;6.49;94.67;100616.55;1671725;85;34613;-75
2022/02/10 05:34:45;;;;;;;33.80;19.98;;;;;;;6.41;95.61;100611.19;1671718;85;25456;-75
2022/02/10 05:37:05;;;;;;;30.08;19.30;;;;;;;6.40;95.50;100619.52;1670468;85;25612;-75
2022/02/10 05:39:36;;;;;;;30.92;19.52;;;;;;;6.41;95.57;100618.45;1679471;84;25441;-75
2022/02/10 05:55:24;;;;;;;28.90;18.75;;;;;;;6.45;95.75;100632.94;1679788;84;28014;-75
2022/02/10 05:57:45;;;;;;;29.55;19.50;;;;;;;6.45;95.70;100635.62;1676859;85;25423;-74
2022/02/10 06:53:50;;;;;;;30.17;21.15;;;;;;;6.50;96.06;100616.28;1593411;90;25571;-73
2022/02/10 07:04:38;;;;;;;29.35;19.60;;;;;;;6.52;96.14;100617.33;1593266;90;25655;-72
2022/02/10 07:46:35;;;;;;;32.00;20.05;;;;;;;6.56;96.60;100615.72;1625640;88;25573;-74
2022/02/10 07:55:39;;;;;;;34.65;20.15;;;;;;;6.56;97.08;100629.16;1625736;88;27425;-73
2022/02/10 07:58:12;;;;;;;31.30;19.27;;;;;;;6.57;97.01;100626.72;1628656;84;25684;-73
2022/02/10 08:00:39;;;;;;;32.75;20.02;;;;;;;6.59;97.13;100626.45;1667803;84;25645;-73
2022/02/10 09:02:10;;;;;;;35.43;20.82;;;;;;;6.51;98.86;100617.88;1631813;87;27561;-73
2022/02/10 09:04:36;;;;;;;36.70;20.90;;;;;;;6.48;98.99;100616.28;1628340;87;25620;-74
2022/02/10 09:20:29;;;;;;;36.88;21.75;;;;;;;6.48;100.00;100602.84;1609721;88;25604;-75
2022/02/10 09:47:49;;;;;;;43.10;24.40;;;;;;;6.62;100.00;100567.56;1674374;83;25673;-73
2022/02/10 09:58:12;;;;;;;41.77;23.30;;;;;;;6.88;100.00;100568.81;1637665;87;25392;-74
2022/02/10 10:00:26;;;;;;;39.88;23.98;;;;;;;6.92;100.00;100566.63;1622567;88;25737;-75
2022/02/10 10:02:54;;;;;;;36.83;22.90;;;;;;;6.96;100.00;100563.38;1625368;88;25826;-74
2022/02/10 10:05:28;;;;;;;;;;;;;;;7.00;100.00;100554.48;1627972;88;25892;-74
2022/02/10 10:13:35;;;;;;;34.75;21.80;;;;;;;7.04;100.00;100551.48;1626183;88;25862;-74
2022/02/10 10:16:20;;;;;;;36.63;21.42;;;;;;;7.04;100.00;100557.42;1623776;88;25805;-71
2022/02/10 10:18:57;;;;;;;41.73;23.02;;;;;;;7.02;99.93;100552.31;1624532;88;25694;-71
2022/02/10 10:21:28;;;;;;;35.38;21.77;;;;;;;7.04;99.91;100545.31;1624644;88;27192;-70
2022/02/10 10:54:59;;;;;;;48.75;28.90;;;;;;;7.37;99.27;100508.77;1686706;83;25766;-73
2022/02/10 10:57:26;;;;;;;42.45;26.42;;;;;;;7.37;99.17;100506.08;1692946;83;26504;-73
2022/02/10 11:39:19;;;;;;;30.55;17.80;;;;;;;7.56;97.92;100462.28;1509137;94;26373;-69
2022/02/10 11:42:23;;;;;;;26.62;17.45;;;;;;;7.55;97.63;100464.18;1465727;97;25860;-70
2022/02/10 12:36:51;;;;;;;26.68;16.52;;;;;;;8.46;98.16;100379.06;1569658;88;25850;-72
2022/02/10 13:23:40;;;;;;;15.65;10.50;;;;;;;7.92;93.36;100332.66;1619656;86;27360;-73
2022/02/10 13:34:50;;;;;;;15.18;10.78;;;;;;;7.65;93.81;100325.43;1622745;87;25564;-72
2022/02/10 14:10:09;;;;;;;18.27;11.88;;;;;;;7.41;95.85;100278.35;1630530;88;25751;-72
2022/02/10 14:14:46;;;;;;;18.85;12.85;;;;;;;7.44;96.36;100267.55;1630512;88;25729;-71
2022/02/10 14:17:09;;;;;;;21.52;12.60;;;;;;;7.43;96.26;100264.61;1629434;86;27563;-72
2022/02/10 14:22:21;;;;;;;19.80;12.95;;;;;;;7.41;96.30;100258.72;1630514;88;25635;-72
2022/02/10 14:27:21;;;;;;;19.50;13.05;;;;;;;7.39;96.35;100250.94;1630661;88;25615;-71
2022/02/10 14:29:48;;;;;;;22.20;13.20;;;;;;;7.40;96.46;100251.17;1630208;88;28283;-70
2022/02/10 14:32:17;;;;;;;23.47;14.18;;;;;;;7.41;96.43;100252.00;1629983;88;26288;-71
2022/02/10 14:34:47;;;;;;;20.63;13.20;;;;;;;7.41;96.48;100254.69;1630711;88;25620;-71
2022/02/10 16:17:05;;;;;;;25.20;15.50;;;;;;;6.71;96.88;100153.30;1603093;89;27363;-73
2022/02/10 16:19:32;;;;;;;23.77;15.18;;;;;;;6.68;96.78;100147.70;1602883;89;25587;-73
2022/02/10 16:24:48;;;;;;;23.12;14.47;;;;;;;6.60;96.43;100132.98;1601956;89;26325;-72
2022/02/10 16:27:18;;;;;;;;;;;;;;;6.56;96.29;100119.88;1605294;89;25592;-71
2022/02/10 16:29:40;;;;;;;20.50;13.88;;;;;;;6.52;96.23;100114.80;1602817;89;27386;-72
2022/02/10 16:32:12;;;;;;;21.45;13.93;;;;;;;6.47;96.17;100122.39;1602939;89;25727;-73
2022/02/10 16:34:41;;;;;;;24.55;14.78;;;;;;;6.43;96.10;100124.03;1602828;89;25781;-71
2022/02/10 16:37:09;;;;;;;23.30;15.43;;;;;;;6.39;96.03;100127.59;1602819;89;25956;-71
2022/02/10 16:39:38;;;;;;;24.70;14.37;;;;;;;6.36;96.08;100121.68;1602946;89;25827;-71
2022/02/10 16:42:08;;;;;;;22.90;14.57;;;;;;;6.35;96.07;100116.59;1600055;89;28077;-73
2022/02/10 16:44:36;;;;;;;23.52;13.80;;;;;;;6.33;95.99;100126.83;1596051;89;25973;-72
2022/02/10 16:47:03;;;;;;;22.42;13.85;;;;;;;6.30;96.05;100130.89;1597820;88;25711;-73
2022/02/10 16:49:30;;;;;;;21.82;14.15;;;;;;;6.28;96.09;100124.19;1597437;89;26061;-72
2022/02/10 16:51:57;;;;;;;26.05;15.78;;;;;;;6.28;96.07;100126.35;1597896;89;25910;-72
2022/02/10 16:54:35;;;;;;;24.72;14.93;;;;;;;6.25;95.93;100122.89;1624096;86;27716;-72
2022/02/10 16:57:19;;;;;;;24.02;15.23;;;;;;;6.24;95.88;100119.14;1672723;85;25712;-71
2022/02/10 16:59:46;;;;;;;27.82;14.00;;;;;;;6.24;95.87;100114.55;1670798;84;25823;-71
2022/02/10 17:28:57;;;;;;;24.15;15.13;;;;;;;6.17;95.48;100110.86;1667742;86;26595;-71
2022/02/10 17:36:50;;;;;;;29.52;16.97;;;;;;;6.14;95.26;100098.55;1667696;86;25465;-72
2022/02/10 17:42:13;;;;;;;26.40;16.27;;;;;;;6.14;95.14;100089.94;1667582;85;25832;-71
2022/02/10 17:44:38;;;;;;;26.60;16.15;;;;;;;6.12;95.20;100084.06;1663870;86;25914;-71
2022/02/10 17:52:13;;;;;;;25.62;15.30;;;;;;;6.07;95.06;100072.58;1668267;85;25537;-73
2022/02/10 17:54:33;;;;;;;25.05;15.08;;;;;;;6.05;95.02;100069.38;1666858;86;25648;-75
2022/02/10 17:56:59;;;;;;;23.07;14.40;;;;;;;6.03;95.03;100064.81;1671255;85;25789;-74
2022/02/10 17:59:25;;;;;;;24.05;14.83;;;;;;;6.03;95.09;100060.27;1674362;85;27575;-74
2022/02/10 18:01:52;;;;;;;23.65;14.65;;;;;;;6.04;94.93;100057.81;1645292;85;26282;-74
2022/02/10 18:04:23;;;;;;;24.15;14.15;;;;;;;6.05;94.96;100052.72;1674401;85;25594;-74
2022/02/10 18:06:54;;;;;;;27.48;17.02;;;;;;;6.05;94.89;100041.98;1674593;85;25725;-75
2022/02/10 18:14:52;;;;;;;26.23;15.90;;;;;;;6.08;94.72;100033.36;1674406;85;25821;-72
2022/02/10 18:17:25;;;;;;;28.57;16.77;;;;;;;6.08;94.69;100029.33;1673884;85;25746;-75
2022/02/10 18:19:53;;;;;;;25.72;16.97;;;;;;;6.09;94.66;100028.78;1673528;85;25728;-73
2022/02/10 18:24:58;;;;;;;26.82;16.40;;;;;;;6.10;94.20;100020.99;1674509;85;27339;-72
2022/02/10 18:27:25;;;;;;;29.25;17.37;;;;;;;6.12;94.16;100022.84;1671629;85;25788;-71
2022/02/10 18:30:11;;;;;;;26.10;16.82;;;;;;;6.12;94.04;100016.92;1672775;84;25761;-71
2022/02/10 19:01:45;;;;;;;25.05;17.20;;;;;;;6.17;93.03;99970.41;1518348;93;25814;-73
2022/02/10 19:10:17;;;;;;;29.25;16.73;;;;;;;6.20;92.27;99967.69;1530226;93;25528;-74
2022/02/10 19:12:51;;;;;;;27.27;15.65;;;;;;;6.21;92.25;99958.55;1530255;93;25834;-72
2022/02/10 19:15:24;;;;;;;27.00;15.95;;;;;;;6.22;92.22;99962.30;1529812;92;25745;-72
2022/02/10 19:17:51;;;;;;;21.97;14.63;;;;;;;6.21;92.13;99945.13;1529901;92;27480;-73
2022/02/10 19:20:20;;;;;;;26.45;15.68;;;;;;;6.24;91.97;99962.02;1557157;90;25751;-74
2022/02/10 19:22:48;;;;;;;26.35;15.28;;;;;;;6.25;91.78;99957.70;1592909;89;25521;-73
2022/02/10 19:25:17;;;;;;;26.37;16.07;;;;;;;6.29;91.66;99961.39;1592828;90;26175;-73
2022/02/10 19:27:45;;;;;;;29.50;14.83;;;;;;;6.32;91.78;99962.17;1593040;90;32796;-72
2022/02/10 19:30:15;;;;;;;22.32;14.63;;;;;;;6.35;91.34;99964.28;1615976;85;27992;-74
2022/02/10 19:32:49;;;;;;;26.82;15.78;;;;;;;6.38;90.82;99964.23;1673827;85;25640;-75
2022/02/10 19:35:13;;;;;;;;;;;;;;;6.43;90.71;99978.16;1675492;85;25462;-73
2022/02/10 19:37:39;;;;;;;28.95;16.67;;;;;;;6.49;90.80;99972.42;1673832;85;25700;-74
2022/02/10 19:40:07;;;;;;;28.90;16.52;;;;;;;6.54;89.80;99976.94;1659569;85;25415;-74
2022/02/10 19:42:36;;;;;;;27.65;15.50;;;;;;;6.59;90.47;99980.08;1659379;86;28013;-73
2022/02/10 19:45:06;;;;;;;27.37;14.90;;;;;;;6.63;90.30;99979.22;1673678;85;25400;-73
2022/02/10 19:47:35;;;;;;;25.00;15.63;;;;;;;6.66;90.49;99975.96;1673799;85;25563;-73
2022/02/10 19:50:10;;;;;;;25.62;14.98;;;;;;;6.70;89.93;99977.52;1673896;85;26208;-73
2022/02/10 19:52:36;;;;;;;25.23;15.58;;;;;;;6.75;89.88;99991.44;1673073;85;25629;-73
2022/02/10 19:55:02;;;;;;;24.27;14.93;;;;;;;6.79;89.69;99984.38;1651034;86;28051;-73
2022/02/10 19:57:28;;;;;;;22.82;14.50;;;;;;;6.83;89.46;99976.01;1635399;86;25590;-73
2022/02/10 19:59:56;;;;;;;26.25;14.90;;;;;;;6.85;89.31;99976.51;1650681;86;25645;-73
2022/02/10 20:02:24;;;;;;;25.70;15.18;;;;;;;6.88;88.88;99978.06;1653888;86;26308;-73
2022/02/10 20:04:51;;;;;;;29.20;15.23;;;;;;;6.90;89.16;99985.29;1655210;84;25256;-72
2022/02/10 20:07:17;;;;;;;23.35;14.68;;;;;;;6.95;88.88;100000.55;1654895;86;28102;-72
2022/02/10 20:09:44;;;;;;;27.70;16.17;;;;;;;6.96;88.89;99999.45;1655064;84;25248;-73
2022/02/10 20:12:10;;;;;;;28.10;17.37;;;;;;;7.01;88.58;99995.34;1676598;84;25254;-72
2022/02/10 20:14:37;;;;;;;22.55;14.65;;;;;;;7.06;88.39;99991.78;1676660;85;25609;-73
2022/02/10 20:17:04;;;;;;;24.80;15.80;;;;;;;7.11;88.59;99998.42;1653220;86;25727;-74
2022/02/10 20:19:30;;;;;;;25.12;14.73;;;;;;;7.15;88.49;99992.73;1652668;86;27297;-73
2022/02/10 20:21:59;;;;;;;27.37;14.65;;;;;;;7.25;87.64;99998.48;1653419;86;25276;-74
2022/02/10 20:24:26;;;;;;;23.10;14.40;;;;;;;7.29;86.86;100004.89;1674662;85;25650;-73
2022/02/10 20:26:52;;;;;;;22.25;14.55;;;;;;;7.37;87.59;99998.84;1675224;85;25700;-74
2022/02/10 20:29:18;;;;;;;24.72;15.32;;;;;;;7.44;87.96;100007.84;1676838;85;25264;-74
2022/02/10 20:31:45;;;;;;;27.58;16.02;;;;;;;7.48;87.65;100009.66;1661631;85;27287;-74
2022/02/10 20:34:14;;;;;;;24.75;15.80;;;;;;;7.53;85.89;100007.44;1673372;85;25762;-74
2022/02/10 20:36:40;;;;;;;24.12;14.03;;;;;;;7.59;87.06;100013.53;1673758;85;25639;-74
2022/02/10 20:39:08;;;;;;;28.62;15.13;;;;;;;7.63;85.99;99997.05;1659366;86;26241;-73
2022/02/10 20:41:36;;;;;;;23.50;14.95;;;;;;;7.67;86.80;100014.98;1636487;86;25488;-74
2022/02/10 20:44:04;;;;;;;26.27;15.70;;;;;;;7.71;86.96;100014.41;1672140;85;27327;-75
2022/02/10 20:46:34;;;;;;;23.40;14.90;;;;;;;7.73;86.95;100021.63;1673796;85;25659;-74
2022/02/10 20:49:02;;;;;;;21.12;14.28;;;;;;;7.76;86.81;100025.08;1673531;85;25578;-72
2022/02/10 20:51:27;;;;;;;22.65;14.98;;;;;;;7.76;86.77;100021.84;1631264;87;26186;-73
2022/02/10 20:53:54;;;;;;;27.93;16.50;;;;;;;7.76;86.67;100029.12;1650391;86;25593;-75
2022/02/10 20:56:22;;;;;;;26.12;15.58;;;;;;;7.76;86.87;100028.56;1652497;86;27369;-72
2022/02/10 20:58:57;;;;;;;31.57;18.75;;;;;;;7.75;86.71;100020.25;1651945;86;25700;-73
2022/02/10 21:01:23;;;;;;;34.27;20.75;;;;;;;7.77;86.60;100032.87;1673396;85;25415;-73
2022/02/10 21:03:50;;;;;;;37.83;26.07;;;;;;;7.76;86.90;100027.78;1673778;85;25636;-73
2022/02/10 21:09:08;;;;;;;31.15;18.25;;;;;;;7.75;86.82;100026.20;1673794;85;27960;-71
2022/02/10 21:11:30;;;;;;;31.50;19.02;;;;;;;7.73;86.62;100025.67;1672556;85;25768;-73
2022/02/10 21:13:57;;;;;;;35.75;22.05;;;;;;;7.70;86.68;100038.40;1673826;85;25621;-73
2022/02/10 21:16:27;;;;;;;32.08;21.80;;;;;;;7.65;86.73;100031.20;1651460;86;26217;-71
2022/02/10 21:18:53;;;;;;;26.75;17.37;;;;;;;7.65;86.84;100035.23;1673973;85;25667;-72
2022/02/10 21:21:19;;;;;;;23.05;16.65;;;;;;;7.63;86.92;100030.15;1673956;85;27318;-72
2022/02/10 21:26:15;;;;;;;24.92;18.02;;;;;;;7.59;86.98;100042.58;1673985;85;25735;-73
2022/02/10 21:28:42;;;;;;;24.77;17.25;;;;;;;7.57;87.02;100046.67;1673756;85;25712;-72
2022/02/10 21:31:10;;;;;;;25.15;16.80;;;;;;;7.55;87.12;100046.17;1673978;85;25714;-75
2022/02/10 21:39:14;;;;;;;25.85;18.37;;;;;;;7.54;87.84;100047.27;1673610;85;25402;-70
2022/02/10 21:55:27;;;;;;;31.82;20.70;;;;;;;7.44;88.30;100069.75;1664608;85;25637;-71
2022/02/10 22:18:52;;;;;;;31.97;20.32;;;;;;;6.99;89.61;100083.58;1657734;86;25614;-71
2022/02/10 22:21:24;;;;;;;31.27;19.98;;;;;;;6.96;89.85;100089.53;1633260;86;26388;-72
2022/02/10 22:23:48;;;;;;;;;;;;;;;6.92;90.02;100089.87;1666529;86;25590;-72
2022/02/10 22:26:28;;;;;;;27.90;18.00;;;;;;;6.85;90.20;100094.25;1664742;86;27886;-72
2022/02/10 22:29:07;;;;;;;33.78;20.80;;;;;;;6.82;90.32;100100.75;1664322;86;25455;-71
2022/02/10 22:31:52;;;;;;;32.05;18.60;;;;;;;6.78;90.57;100099.73;1642008;87;25426;-73
2022/02/10 22:36:55;;;;;;;31.15;19.35;;;;;;;6.67;90.87;100103.87;1667159;85;25577;-70
2022/02/10 22:39:17;;;;;;;30.43;19.32;;;;;;;6.62;90.97;100100.45;1666545;86;27352;-70
2022/02/10 22:41:46;;;;;;;27.60;17.65;;;;;;;6.56;90.92;100104.30;1657704;86;25633;-70
2022/02/10 22:44:13;;;;;;;27.27;16.85;;;;;;;6.53;90.99;100099.73;1657641;86;25605;-71
2022/02/10 22:46:39;;;;;;;24.10;15.43;;;;;;;6.47;90.68;100100.89;1657638;86;26188;-72
2022/02/10 22:49:07;;;;;;;22.42;14.75;;;;;;;6.43;90.75;100099.06;1657753;86;25656;-70
2022/02/10 22:51:35;;;;;;;24.30;15.48;;;;;;;6.39;90.71;100108.78;1657660;85;26805;-71
2022/02/10 22:54:04;;;;;;;32.60;19.52;;;;;;;6.37;90.89;100109.07;1638164;86;25433;-71
2022/02/10 22:56:31;;;;;;;29.90;18.13;;;;;;;6.36;91.03;100115.52;1657943;86;25561;-71
2022/02/10 22:59:05;;;;;;;26.35;16.20;;;;;;;6.35;91.08;100119.27;1657640;86;25633;-71
2022/02/10 23:01:33;;;;;;;27.22;15.78;;;;;;;6.33;91.06;100127.64;1656892;86;25479;-71
2022/02/10 23:03:59;;;;;;;27.58;15.60;;;;;;;6.30;91.02;100140.81;1657642;86;27266;-71
2022/02/10 23:06:27;;;;;;;20.72;13.05;;;;;;;6.29;91.24;100148.63;1657665;86;25577;-70
2022/02/10 23:08:54;;;;;;;8.73;6.25;;;;;;;6.27;90.99;100146.23;1664703;85;25603;-70
2022/02/10 23:11:29;;;;;;;8.33;5.33;;;;;;;6.22;90.14;100150.31;1664613;86;25751;-71
2022/02/10 23:14:00;;;;;;;6.22;4.37;;;;;;;6.15;89.28;100154.66;1664900;86;25591;-70
2022/02/10 23:16:28;;;;;;;5.85;4.00;;;;;;;6.06;88.65;100159.05;1664777;86;27321;-70
2022/02/10 23:18:55;;;;;;;4.33;3.55;;;;;;;6.00;88.60;100160.17;1664671;86;25462;-70
2022/02/10 23:21:23;;;;;;;5.72;4.10;;;;;;;5.93;88.61;100160.45;1665026;85;25609;-70
2022/02/10 23:23:51;;;;;;;6.25;4.10;;;;;;;5.89;88.45;100168.00;1659808;85;27827;-70
2022/02/10 23:26:21;;;;;;;6.30;3.50;;;;;;;5.82;88.34;100182.29;1659547;86;25636;-71
2022/02/10 23:28:52;;;;;;;6.47;4.20;;;;;;;5.75;88.28;100185.28;1659328;86;29569;-69
2022/02/10 23:31:22;;;;;;;5.17;3.70;;;;;;;5.68;88.18;100177.55;1659611;86;25230;-69
2022/02/10 23:33:56;;;;;;;8.18;3.72;;;;;;;5.63;88.07;100181.61;1660132;86;25160;-70
2022/02/10 23:44:15;;;;;;;7.85;4.70;;;;;;;5.49;88.46;100210.14;1599721;89;25536;-70
2022/02/10 23:46:42;;;;;;;6.15;4.60;;;;;;;5.47;88.61;100213.65;1599714;89;25238;-70
2022/02/10 23:49:09;;;;;;;7.62;4.75;;;;;;;5.42;88.69;100213.92;1598145;89;25708;-70
2022/02/10 23:51:46;;;;;;;6.87;4.92;;;;;;;5.41;88.84;100225.75;1597782;89;25535;-70
2022/02/10 23:54:04;;;;;;;7.70;5.15;;;;;;;5.40;88.94;100237.55;1597684;89;27340;-70
2022/02/10 23:56:35;;;;;;;8.28;6.15;;;;;;;5.38;88.97;100242.38;1597580;89;25262;-71
2022/02/10 23:59:08;;;;;;;9.20;5.55;;;;;;;5.33;88.89;100241.06;1597654;89;25411;-70
